Latest Coastal Weather Observations for Proserpine

IDQ60701

Issued at 11:51 pm EST Wednesday 26 April 2017 (issued every 10 minutes, with the page automatically refreshed every 10 minutes)

About coastal observations | Map of coastal stations | Coastal observations for QLD | Marine services | Other Formats
Station Details ID: 033247 Name: PROSERPINE AIRPORT Lat: -20.49 Lon: 148.56 Height: 19.7 m
Data from the previous 72 hours. | See also: Recent months at Proserpine
Date/Time
EST
Temp
°C
Wind Pressure Rain since
9am
mm
Weather Cloud Vis
km
Sea
Height
m
Swell
Dir  Spd
kts
Gust
kts
hPa Trend Height
m
Period
s
Dir
26/11:30pm 20.0 WNW 3 3 1013.0 - 0.0 - - 10 - - - -
26/11:00pm 20.2 NW 2 4 1013.1 - 0.0 - - 10 - - - -
26/10:30pm 20.1 NNW 3 3 1013.3 - 0.0 - - 10 - - - -
26/10:00pm 20.3 NNW 3 4 1013.2 - 0.0 - - 10 - - - -
26/09:30pm 20.6 NNW 3 3 1013.3 - 0.0 - - 10 - - - -
26/09:00pm 21.2 NNW 3 4 1013.2 - 0.0 - - 10 - - - -
26/08:30pm 21.6 NNW 4 5 1013.0 - 0.0 - - 10 - - - -
26/08:00pm 22.0 NNW 5 6 1012.8 - 0.0 - - 10 - - - -
26/07:30pm 22.3 NNW 3 4 1012.7 - 0.0 - - 10 - - - -
26/07:00pm 22.7 NNW 6 7 1012.3 - 0.0 - - 10 - - - -
26/06:30pm 23.3 N 5 7 1011.9 - 0.0 - - 10 - - - -
26/06:00pm 24.0 N 5 6 1011.6 - 0.0 - - 10 - - - -
26/05:30pm 25.3 N 7 10 1011.1 - 0.0 - - 10 - - - -
26/05:00pm 26.6 N 9 12 1010.7 - 0.0 - - 10 - - - -
26/04:30pm 28.0 N 7 11 1010.7 - 0.0 - - 10 - - - -
26/04:00pm 28.0 ENE 7 9 1010.8 - 0.0 - - 10 - - - -
26/03:30pm 28.5 E 9 11 1010.7 - 0.0 - - 10 - - - -
26/03:00pm 30.2 ENE 5 7 1010.7 - 0.0 - - 10 - - - -
26/02:30pm 30.6 NE 4 8 1010.9 - 0.0 - - 10 - - - -
26/02:00pm 30.3 NNE 5 8 1011.0 - 0.0 - - 10 - - - -
26/01:30pm 30.4 ENE 4 7 1011.5 - 0.0 - - 10 - - - -
26/01:00pm 29.4 NE 5 8 1012.2 - 0.0 - - 10 - - - -
26/12:30pm 29.4 NE 5 8 1012.8 - 0.0 - - 10 - - - -
26/12:00pm 28.4 N 3 6 1013.4 - 0.0 - - 10 - - - -
26/11:30am 27.7 NNW 4 5 1014.0 - 0.0 - - 10 - - - -
26/11:00am 26.8 SSE 3 6 1014.7 - 0.0 - - 10 - - - -
26/10:30am 26.5 NE 4 7 1015.1 - 0.0 - Partly cloudy 10 - - - -
26/10:00am 26.2 NE 3 6 1015.4 - 0.0 - Partly cloudy 10 - - - -
26/09:30am 25.2 SSE 1 4 1015.4 - 0.0 - - 10 - - - -
26/09:00am 23.6 SSW 1 4 1015.4 - 0.0 - - 10 - - - -
26/08:30am 21.7 NNW 1 5 1015.2 - 0.0 - - 10 - - - -
26/08:00am 20.4 N 2 4 1015.0 - 0.0 - - 10 - - - -
26/07:30am 19.2 SSW 3 5 1015.0 - 0.0 - - 10 - - - -
26/07:00am 17.4 CALM 0 0 1015.0 - 0.0 - - 10 - - - -
26/06:30am 17.0 WSW 3 5 1014.7 - 0.0 - Partly cloudy 10 - - - -
26/06:21am 16.7 WSW 3 5 1014.6 - 0.0 - Partly cloudy 10 - - - -
26/06:00am 17.0 CALM 0 0 1014.3 - 0.0 - Mostly clear 5 - - - -
26/05:53am 16.9 CALM 0 0 1014.2 - 0.0 - Partly cloudy 10 - - - -
26/05:30am 17.1 SSE 1 4 1013.9 - 0.0 - - 10 - - - -
26/05:10am 17.7 CALM 0 0 1013.8 - 0.0 - Partly cloudy 4 - - - -
26/05:04am 18.0 CALM 0 0 1013.8 - 0.0 - Partly cloudy 8 - - - -
26/05:00am 17.9 CALM 0 0 1013.8 - 0.0 - Partly cloudy 9 - - - -
26/04:42am 18.0 CALM 0 0 1013.8 - 0.0 - Partly cloudy 10 - - - -
26/04:30am 18.0 CALM 0 0 1014.0 - 0.0 - Cloudy 3 - - - -
26/04:19am 17.8 CALM 0 0 1014.0 - 0.0 - Partly cloudy 6 - - - -
26/04:06am 17.6 CALM 0 0 1014.0 - 0.0 - Partly cloudy 10 - - - -
26/04:00am 17.6 CALM 0 0 1014.0 - 0.0 - Partly cloudy 10 - - - -
26/03:30am 18.3 CALM 0 0 1014.2 - 0.0 - Partly cloudy 10 - - - -
26/03:20am 18.0 SW 1 3 1014.2 - 0.0 - Partly cloudy 10 - - - -
26/03:01am 18.2 CALM 0 0 1014.1 - 0.0 - Partly cloudy 4 - - - -
26/03:00am 18.2 CALM 0 0 1014.1 - 0.0 - - 8 - - - -
26/02:30am 18.7 SSW 5 7 1014.1 - 0.0 - - 10 - - - -
26/02:00am 18.9 SSW 6 7 1014.6 - 0.0 - - 10 - - - -
26/01:30am 19.2 SSW 6 7 1015.0 - 0.0 - Partly cloudy 10 - - - -
26/01:14am 19.2 SW 3 5 1015.2 - 0.0 - Partly cloudy 10 - - - -
26/01:00am 19.2 CALM 0 0 1015.3 - 0.0 - Partly cloudy 6 - - - -
26/12:58am 19.2 CALM 0 0 1015.3 - 0.0 - Partly cloudy 6 - - - -
26/12:33am 19.5 SW 5 6 1015.5 - 0.0 - Partly cloudy 10 - - - -
26/12:30am 19.5 SW 5 6 1015.5 - 0.0 - Partly cloudy 10 - - - -
26/12:07am 19.8 SW 1 5 1015.7 - 0.0 - Partly cloudy 10 - - - -
26/12:00am 19.8 CALM 0 0 1015.7 - 0.0 - Partly cloudy 10 - - - -
 
Date/Time
EST
Temp
°C
Wind Pressure Rain since
9am
mm
Weather Cloud Vis
km
Sea
Height
m
Swell
Dir  Spd
kts
Gust
kts
hPa Trend Height
m
Period
s
Dir
25/11:30pm 19.6 SSW 4 5 1015.8 - 0.0 - Partly cloudy 10 - - - -
25/11:00pm 19.9 CALM 0 1 1015.9 - 0.0 - - 10 - - - -
25/10:30pm 20.1 SW 6 6 1016.0 - 0.0 - Partly cloudy 10 - - - -
25/10:00pm 20.1 SW 3 4 1016.1 - 0.0 - - 10 - - - -
25/09:30pm 20.5 SSW 6 7 1016.2 - 0.0 - - 10 - - - -
25/09:00pm 20.6 CALM 0 0 1016.2 - 0.0 - Mostly clear 10 - - - -
25/08:30pm 20.9 S 6 6 1016.1 - 0.0 - - 10 - - - -
25/08:00pm 21.3 SSE 4 6 1015.8 - 0.0 - Partly cloudy 10 - - - -
25/07:30pm 21.7 SSE 5 6 1015.7 - 0.0 - - 10 - - - -
25/07:00pm 21.6 SSE 4 5 1015.2 - 0.0 - - 10 - - - -
25/06:30pm 22.0 SE 4 6 1015.0 - 0.0 - - 10 - - - -
25/06:00pm 22.3 SE 6 8 1014.7 - 0.0 - - 10 - - - -
25/05:30pm 23.5 ESE 8 12 1014.6 - 0.0 - - 10 - - - -
25/05:00pm 24.7 ESE 9 13 1014.2 - 0.0 - - 10 - - - -
25/04:30pm 25.6 ESE 10 13 1013.9 - 0.0 - - 10 - - - -
25/04:00pm 26.1 ESE 12 15 1013.8 - 0.0 - - 10 - - - -
25/03:30pm 26.9 ESE 11 14 1013.7 - 0.0 - - 10 - - - -
25/03:00pm 26.9 ESE 12 16 1013.6 - 0.0 - - 10 - - - -
25/02:30pm 27.6 ESE 10 14 1013.9 - 0.0 - - 10 - - - -
25/02:00pm 27.6 ESE 11 17 1014.1 - 0.0 - - 10 - - - -
25/01:30pm 27.5 ESE 14 19 1014.4 - 0.0 - - 10 - - - -
25/01:00pm 27.3 ESE 14 18 1014.7 - 0.0 - - 10 - - - -
25/12:30pm 27.3 E 12 17 1015.3 - 0.0 - - 10 - - - -
25/12:00pm 27.7 ESE 12 19 1015.8 - 0.0 - - 10 - - - -
25/11:30am 27.2 ESE 13 18 1016.3 - 0.0 - - 10 - - - -
25/11:00am 26.1 ESE 13 17 1016.9 - 0.0 - Partly cloudy 10 - - - -
25/10:30am 25.7 SE 13 17 1017.5 - 0.0 - Partly cloudy 10 - - - -
25/10:00am 26.4 ESE 12 17 1017.4 - 0.0 - Partly cloudy 10 - - - -
25/09:30am 25.1 SE 9 12 1017.4 - 0.0 - Partly cloudy 10 - - - -
25/09:00am 23.9 SSE 8 11 1017.2 - 0.0 - Mostly cloudy 10 - - - -
25/08:30am 23.4 SSE 9 13 1017.0 - 0.0 - Partly cloudy 10 - - - -
25/08:00am 22.0 S 5 5 1016.7 - 0.0 - - 10 - - - -
25/07:30am 20.4 SSW 4 6 1016.5 - 0.0 - - 10 - - - -
25/07:00am 18.8 CALM 0 0 1016.4 - 0.0 - - 10 - - - -
25/06:30am 18.2 SSW 5 7 1016.2 - 0.0 - - 10 - - - -
25/06:00am 18.0 SSW 7 7 1015.7 - 0.0 - - 10 - - - -
25/05:30am 17.9 SW 5 6 1015.6 - 0.0 - - 10 - - - -
25/05:00am 18.0 SSW 5 6 1015.4 - 0.0 - - 10 - - - -
25/04:30am 18.0 S 3 4 1015.3 - 0.0 - - 10 - - - -
25/04:00am 18.3 SSW 6 7 1015.2 - 0.0 - - 10 - - - -
25/03:30am 18.3 SSW 5 6 1015.2 - 0.0 - - 10 - - - -
25/03:00am 18.3 SSW 5 5 1015.2 - 0.0 - - 10 - - - -
25/02:30am 18.5 SSW 6 7 1015.4 - 0.0 - Partly cloudy 10 - - - -
25/02:00am 18.4 SSW 6 6 1015.7 - 0.0 - - 10 - - - -
25/01:30am 18.5 SSW 6 7 1016.2 - 0.0 - - 10 - - - -
25/01:00am 18.5 SSW 6 7 1016.5 - 0.0 - - 10 - - - -
25/12:30am 18.7 SSW 5 6 1016.8 - 0.0 - - 10 - - - -
25/12:00am 18.9 SSW 6 7 1017.0 - 0.0 - - 10 - - - -
 
Date/Time
EST
Temp
°C
Wind Pressure Rain since
9am
mm
Weather Cloud Vis
km
Sea
Height
m
Swell
Dir  Spd
kts
Gust
kts
hPa Trend Height
m
Period
s
Dir
24/11:30pm 18.9 SSW 5 6 1017.2 - 0.0 - - 10 - - - -
24/11:00pm 19.1 SSW 6 7 1017.5 - 0.0 - - 10 - - - -
24/10:30pm 19.5 S 6 6 1017.7 - 0.0 - - 10 - - - -
24/10:00pm 19.4 SSW 6 6 1018.0 - 0.0 - - 10 - - - -
24/09:30pm 20.1 SSW 6 7 1018.1 - 0.0 - - 10 - - - -
24/09:00pm 20.7 SSW 6 8 1018.1 - 0.0 - - 10 - - - -
24/08:30pm 21.5 S 6 7 1018.0 - 0.0 - - 10 - - - -
24/08:00pm 21.6 S 6 7 1017.7 - 0.0 - - 10 - - - -
24/07:30pm 22.0 SSE 5 6 1017.5 - 0.0 - - 10 - - - -
24/07:00pm 22.6 SSE 7 9 1017.0 - 0.0 - - 10 - - - -
24/06:30pm 22.7 SE 7 9 1016.8 - 0.0 - Partly cloudy 10 - - - -
24/06:00pm 23.6 SE 9 12 1016.7 - 0.0 - Mostly cloudy 10 - - - -
24/05:30pm 24.5 ESE 10 16 1016.4 - 0.0 - Cloudy 10 - - - -
24/05:00pm 25.1 ESE 13 17 1016.1 - 0.0 - Partly cloudy 10 - - - -
24/04:30pm 26.0 SE 14 19 1015.9 - 0.0 - Partly cloudy 10 - - - -
24/04:00pm 26.5 ESE 15 20 1015.6 - 0.0 - Partly cloudy 10 - - - -
24/03:30pm 26.7 ESE 13 20 1015.6 - 0.0 - Partly cloudy 10 - - - -
24/03:00pm 26.6 ESE 15 20 1015.5 - 0.0 - Mostly cloudy 10 - - - -
24/02:30pm 26.5 SE 14 20 1015.6 - 0.0 - Partly cloudy 10 - - - -
24/02:00pm 26.3 ESE 16 22 1015.7 - 0.0 - Partly cloudy 10 - - - -
24/01:30pm 25.8 SE 16 21 1016.1 - 0.0 - Partly cloudy 10 - - - -
24/01:00pm 26.2 SE 14 20 1016.4 - 0.0 - Partly cloudy 10 - - - -
24/12:30pm 26.4 ESE 14 19 1016.5 - 0.0 - Cloudy 10 - - - -
24/12:00pm 26.1 ESE 13 18 1016.8 - 0.0 - Cloudy 10 - - - -
24/11:30am 25.1 E 13 19 1017.5 - 0.0 - Partly cloudy 10 - - - -
24/11:00am 25.4 SE 13 19 1017.8 - 0.0 - Partly cloudy 10 - - - -
24/10:30am 24.8 ESE 14 23 1018.1 - 0.0 - Partly cloudy 10 - - - -
24/10:00am 25.7 SE 13 17 1018.2 - 0.0 - Partly cloudy 10 - - - -
24/09:30am 24.3 SE 12 16 1018.2 - 0.0 - Partly cloudy 10 - - - -
24/09:00am 23.9 SSE 9 14 1017.9 - 1.0 - Cloudy 10 - - - -
24/08:30am 23.2 SSE 9 12 1017.8 - 1.0 - Cloudy 10 - - - -
24/08:00am 22.3 S 8 11 1017.7 - 1.0 - Partly cloudy 10 - - - -
24/07:30am 21.3 SSE 8 11 1017.6 - 1.0 - - 10 - - - -
24/07:00am 20.3 S 5 7 1017.2 - 1.0 - Partly cloudy 10 - - - -
24/06:30am 19.7 S 6 8 1016.7 - 1.0 - Partly cloudy 10 - - - -
24/06:00am 18.8 S 5 6 1016.4 - 1.0 - - 10 - - - -
24/05:30am 18.8 S 5 6 1016.3 - 1.0 - - 10 - - - -
24/05:00am 19.0 SSW 5 7 1016.1 - 1.0 - - 10 - - - -
24/04:30am 19.5 S 6 7 1016.1 - 1.0 - Partly cloudy 10 - - - -
24/04:00am 20.2 S 6 8 1016.2 - 1.0 - Partly cloudy 10 - - - -
24/03:30am 20.4 S 7 9 1016.4 - 1.0 - - 10 - - - -
24/03:00am 20.7 S 8 10 1016.6 - 1.0 - - 10 - - - -
24/02:30am 20.6 S 7 9 1016.6 - 1.0 - Partly cloudy 10 - - - -
24/02:00am 20.4 SSE 6 8 1016.9 - 1.0 - Partly cloudy 10 - - - -
24/01:30am 19.4 SSW 4 5 1017.4 - 1.0 - Partly cloudy 10 - - - -
24/01:00am 19.4 SSW 5 6 1017.8 - 1.0 - Partly cloudy 10 - - - -
24/12:30am 19.6 SSW 6 7 1018.0 - 1.0 - Partly cloudy 10 - - - -
24/12:00am 19.7 SSW 7 8 1018.2 - 1.0 - - 10 - - - -

Other Formats:

Comma delimited format used in spreadsheet applications
http://www.bom.gov.au/fwo/IDQ60701/IDQ60701.94365.axf

JavaScript Object Notation format (JSON) in row-major order
http://www.bom.gov.au/fwo/IDQ60701/IDQ60701.94365.json